Time;durP1;ratioP1;P1;durP2;ratioP2;P2;SDS_P1;SDS_P2;PMS_P1;PMS_P2;Temp;Humidity;BMP_temperature;BMP_pressure;BME280_temperature;BME280_humidity;BME280_pressure;Samples;Min_cycle;Max_cycle;Signal;HPM_P1;HPM_P2
2023/01/21 00:37:42;;;;;;;52.08;17.27;;;;;;;;;;6251747;22;20099;-92
2023/01/21 00:40:09;;;;;;;48.55;17.85;;;;;;;;;;6251187;22;20309;-94
2023/01/21 00:42:35;;;;;;;57.63;18.17;;;;;;;;;;6250214;22;20015;-93
2023/01/21 00:45:01;;;;;;;57.53;19.48;;;;;;;;;;6226486;22;20379;-93
2023/01/21 00:47:27;;;;;;;59.08;17.92;;;;;;;;;;6227227;22;20020;-93
2023/01/21 00:49:53;;;;;;;53.10;16.35;;;;;;;;;;6226691;22;20000;-95
2023/01/21 00:52:19;;;;;;;54.88;18.65;;;;;;;;;;6230443;22;20008;-94
2023/01/21 00:54:46;;;;;;;43.95;16.63;;;;;;;;;;6253970;22;20049;-92
2023/01/21 00:57:12;;;;;;;55.80;18.67;;;;;;;;;;6251376;22;20011;-94
2023/01/21 00:59:41;;;;;;;56.63;18.98;;;;;;;;;;6227112;22;20016;-94
2023/01/21 01:02:08;;;;;;;55.10;18.35;;;;;;;;;;6229984;22;20007;-92
2023/01/21 01:04:35;;;;;;;56.95;18.92;;;;;;;;;;6256522;22;20025;-94
2023/01/21 01:07:02;;;;;;;54.22;18.23;;;;;;;;;;6256036;22;20011;-95
2023/01/21 01:09:29;;;;;;;54.55;17.73;;;;;;;;;;6257658;22;20049;-95
2023/01/21 01:11:58;;;;;;;57.42;19.23;;;;;;;;;;6256954;22;20028;-94
2023/01/21 01:14:24;;;;;;;55.30;18.58;;;;;;;;;;6234951;22;20432;-92
2023/01/21 01:17:01;;;;;;;52.22;18.13;;;;;;;;;;6237606;22;20008;-95
2023/01/21 01:19:39;;;;;;;56.58;19.33;;;;;;;;;;6267745;22;20050;-94
2023/01/21 01:22:38;;;;;;;44.22;16.02;;;;;;;;;;6266236;22;20010;-94
2023/01/21 01:28:08;;;;;;;51.13;18.13;;;;;;;;;;6278727;22;20010;-93
2023/01/21 01:37:43;;;;;;;65.45;18.02;;;;;;;;;;6155357;22;20005;-93
2023/01/21 01:40:39;;;;;;;50.35;17.50;;;;;;;;;;6226719;23;20004;-94
2023/01/21 10:58:43;;;;;;;30.25;14.00;;;;;;;;;;6248208;22;20032;-94
2023/01/21 11:04:54;;;;;;;28.17;12.93;;;;;;;;;;6283025;22;20008;-94
2023/01/21 11:07:21;;;;;;;26.27;11.77;;;;;;;;;;6286308;22;20079;-93
2023/01/21 11:09:47;;;;;;;23.77;12.07;;;;;;;;;;6255259;22;20067;-94
2023/01/21 11:12:22;;;;;;;24.63;12.05;;;;;;;;;;6256857;22;20008;-95
2023/01/21 11:15:01;;;;;;;22.50;12.23;;;;;;;;;;6233703;22;20015;-94
2023/01/21 11:17:32;;;;;;;27.88;11.02;;;;;;;;;;6258078;22;20046;-94
2023/01/21 11:19:59;;;;;;;20.15;11.43;;;;;;;;;;6254790;22;20211;-95
2023/01/21 11:22:28;;;;;;;19.65;10.63;;;;;;;;;;6230498;22;20324;-95
2023/01/21 11:24:54;;;;;;;19.65;10.32;;;;;;;;;;6253232;22;20012;-96
2023/01/21 11:27:33;;;;;;;19.05;10.05;;;;;;;;;;6226005;22;20471;-96
2023/01/21 11:29:59;;;;;;;20.80;10.77;;;;;;;;;;6248725;22;20008;-95
2023/01/21 11:32:40;;;;;;;19.08;10.07;;;;;;;;;;6251598;22;20096;-95
2023/01/21 11:35:09;;;;;;;19.45;9.82;;;;;;;;;;6247879;22;20008;-94
2023/01/21 11:37:45;;;;;;;17.13;10.10;;;;;;;;;;6250723;22;20420;-96
2023/01/21 11:40:20;;;;;;;20.58;8.10;;;;;;;;;;6216482;23;20027;-95
2023/01/21 11:42:57;;;;;;;16.27;9.15;;;;;;;;;;6239498;23;20491;-95
2023/01/21 11:45:51;;;;;;;16.42;9.30;;;;;;;;;;6156144;23;20435;-95
2023/01/21 11:48:39;;;;;;;26.52;10.50;;;;;;;;;;6134201;23;20040;-95
2023/01/21 11:54:16;;;;;;;16.70;8.93;;;;;;;;;;6124479;23;20088;-96
2023/01/21 11:57:04;;;;;;;15.20;9.55;;;;;;;;;;6128139;23;20489;-96
2023/01/21 12:00:26;;;;;;;15.02;8.85;;;;;;;;;;6127283;23;20625;-94
2023/01/21 12:06:13;;;;;;;16.35;8.77;;;;;;;;;;6116210;23;20017;-95
2023/01/21 12:08:48;;;;;;;17.35;8.93;;;;;;;;;;6127394;23;20061;-95
2023/01/21 12:11:21;;;;;;;11.70;7.25;;;;;;;;;;6141582;23;20024;-94
2023/01/21 12:13:59;;;;;;;12.48;7.88;;;;;;;;;;6155252;23;20008;-95
2023/01/21 12:16:28;;;;;;;12.63;8.35;;;;;;;;;;6156976;23;20009;-95
2023/01/21 12:19:48;;;;;;;12.35;7.85;;;;;;;;;;6122611;23;20101;-95
2023/01/21 12:22:48;;;;;;;11.95;7.25;;;;;;;;;;5997139;23;20449;-95
2023/01/21 12:26:07;;;;;;;15.13;7.63;;;;;;;;;;5998401;23;20504;-94
2023/01/21 12:28:50;;;;;;;11.60;6.68;;;;;;;;;;6006845;23;20035;-95
2023/01/21 12:38:09;;;;;;;8.07;5.22;;;;;;;;;;5978317;24;20012;-95
2023/01/21 12:41:06;;;;;;;9.60;5.60;;;;;;;;;;6026854;23;20007;-96
2023/01/21 12:44:04;;;;;;;10.02;5.60;;;;;;;;;;6027873;23;20011;-96
2023/01/21 12:47:02;;;;;;;7.07;4.97;;;;;;;;;;6082054;23;20558;-95
2023/01/21 12:52:54;;;;;;;7.33;4.70;;;;;;;;;;6116594;23;20016;-95
2023/01/21 13:01:50;;;;;;;6.32;4.28;;;;;;;;;;6152409;23;20044;-95
2023/01/21 13:10:37;;;;;;;;;;;;;;;;;;;;;
2023/01/21 13:31:56;;;;;;;8.40;5.47;;;;;;;;;;5818256;24;20025;-94
2023/01/21 14:00:25;;;;;;;12.20;7.15;;;;;;;;;;5773972;24;20098;-95
2023/01/21 14:10:19;;;;;;;;;;;;;;;;;;;;;
2023/01/21 14:23:09;;;;;;;8.18;4.75;;;;;;;;;;6081118;23;20014;-95
2023/01/21 14:29:08;;;;;;;;;;;;;;;;;;;;;
2023/01/21 14:31:50;;;;;;;9.70;5.05;;;;;;;;;;6073861;23;20066;-94
2023/01/21 20:02:54;;;;;;;27.00;11.48;;;;;;;;;;6251458;22;20023;-93
2023/01/21 20:05:21;;;;;;;22.65;10.13;;;;;;;;;;6230440;22;20031;-95
2023/01/21 20:07:48;;;;;;;24.00;10.18;;;;;;;;;;6251571;22;20034;-94
2023/01/21 20:10:19;;;;;;;26.20;11.95;;;;;;;;;;6253453;22;20026;-94
2023/01/21 20:12:47;;;;;;;25.08;11.00;;;;;;;;;;6253260;22;20003;-93
2023/01/21 20:15:40;;;;;;;20.98;9.65;;;;;;;;;;6252033;22;20012;-94
2023/01/21 20:18:10;;;;;;;19.30;9.90;;;;;;;;;;6208218;22;20011;-95
2023/01/21 20:20:39;;;;;;;21.20;10.25;;;;;;;;;;6277706;22;20008;-95
2023/01/21 20:23:29;;;;;;;27.25;11.02;;;;;;;;;;6251037;22;20012;-94
2023/01/21 20:25:58;;;;;;;23.35;11.27;;;;;;;;;;6253635;22;20069;-93
2023/01/21 20:28:25;;;;;;;30.85;11.57;;;;;;;;;;6252492;22;20023;-94
2023/01/21 20:30:54;;;;;;;27.73;11.57;;;;;;;;;;6253217;22;20007;-93
2023/01/21 20:33:36;;;;;;;29.40;11.98;;;;;;;;;;6255305;22;20038;-93
2023/01/21 20:39:15;;;;;;;23.70;11.50;;;;;;;;;;6273577;22;20043;-93
2023/01/21 20:44:46;;;;;;;20.60;9.45;;;;;;;;;;6237067;22;20047;-96
2023/01/21 20:47:12;;;;;;;29.67;12.38;;;;;;;;;;6234247;22;20030;-93
2023/01/21 20:49:38;;;;;;;25.58;11.43;;;;;;;;;;6257127;22;20057;-93
2023/01/21 20:52:04;;;;;;;22.20;9.05;;;;;;;;;;6256117;22;20000;-93
2023/01/21 20:54:30;;;;;;;20.27;9.30;;;;;;;;;;6230285;22;20061;-92
2023/01/21 20:56:56;;;;;;;20.95;9.38;;;;;;;;;;6230792;22;20364;-92
2023/01/21 20:59:25;;;;;;;23.67;10.07;;;;;;;;;;6281812;22;20458;-93
2023/01/21 21:01:54;;;;;;;22.50;9.77;;;;;;;;;;6257304;22;20003;-93
2023/01/21 21:04:23;;;;;;;19.80;9.23;;;;;;;;;;6228722;22;20340;-93
2023/01/21 21:06:49;;;;;;;21.55;9.07;;;;;;;;;;6228410;23;20004;-95
2023/01/21 21:09:19;;;;;;;29.83;10.20;;;;;;;;;;6250872;23;20004;-94
2023/01/21 21:11:45;;;;;;;18.85;8.77;;;;;;;;;;6251074;23;20435;-94
2023/01/21 21:14:12;;;;;;;20.35;9.15;;;;;;;;;;6225417;23;20413;-94
2023/01/21 21:16:41;;;;;;;21.02;9.32;;;;;;;;;;6249805;23;20498;-96
2023/01/21 21:19:09;;;;;;;19.00;8.38;;;;;;;;;;6252423;23;20000;-95
2023/01/21 21:21:35;;;;;;;16.90;8.38;;;;;;;;;;6253562;23;20028;-95
2023/01/21 21:24:05;;;;;;;12.23;6.47;;;;;;;;;;6225289;23;20428;-95
2023/01/21 21:26:36;;;;;;;15.02;7.20;;;;;;;;;;6250063;23;19988;-95
2023/01/21 21:29:03;;;;;;;13.00;6.72;;;;;;;;;;6249608;23;20008;-95
2023/01/21 21:31:31;;;;;;;13.80;7.38;;;;;;;;;;6249146;23;20015;-95
2023/01/21 21:33:57;;;;;;;15.85;6.90;;;;;;;;;;6249344;23;20380;-95
2023/01/21 21:36:23;;;;;;;14.35;7.03;;;;;;;;;;6225207;23;20016;-95
2023/01/21 21:38:51;;;;;;;13.57;7.13;;;;;;;;;;6221889;23;20089;-95
2023/01/21 21:44:06;;;;;;;11.57;5.80;;;;;;;;;;6250461;23;20504;-94
2023/01/21 21:49:17;;;;;;;16.00;6.80;;;;;;;;;;6248104;23;20043;-92
2023/01/21 21:51:43;;;;;;;10.15;5.25;;;;;;;;;;6247683;23;20439;-95
2023/01/21 21:54:09;;;;;;;16.85;6.65;;;;;;;;;;6226930;23;20018;-95
2023/01/21 21:56:35;;;;;;;12.18;6.10;;;;;;;;;;6227883;23;20070;-95
2023/01/21 21:59:02;;;;;;;14.32;6.25;;;;;;;;;;6227958;23;20008;-95
2023/01/21 22:01:29;;;;;;;18.40;7.15;;;;;;;;;;6253666;23;20004;-95
2023/01/21 22:04:01;;;;;;;19.73;9.13;;;;;;;;;;6275300;22;20401;-95
2023/01/21 22:06:31;;;;;;;22.67;9.85;;;;;;;;;;6282662;22;20014;-94
2023/01/21 22:08:57;;;;;;;16.85;7.28;;;;;;;;;;6280319;22;20015;-93
2023/01/21 22:11:24;;;;;;;14.70;6.40;;;;;;;;;;6233057;22;20023;-95
2023/01/21 22:13:51;;;;;;;14.07;6.63;;;;;;;;;;6282467;22;20006;-95
2023/01/21 22:16:22;;;;;;;14.00;6.68;;;;;;;;;;6282530;22;20015;-95
2023/01/21 22:18:48;;;;;;;14.32;6.05;;;;;;;;;;6282428;22;20041;-96
2023/01/21 22:21:19;;;;;;;12.50;6.00;;;;;;;;;;6281136;22;20018;-95
2023/01/21 22:23:50;;;;;;;13.02;6.30;;;;;;;;;;6282746;22;20007;-96
2023/01/21 22:26:34;;;;;;;8.80;4.78;;;;;;;;;;6234459;22;20007;-96
2023/01/21 22:29:28;;;;;;;15.23;6.07;;;;;;;;;;6239356;22;20004;-96
2023/01/21 22:31:54;;;;;;;11.43;5.53;;;;;;;;;;6254050;22;19999;-96
2023/01/21 22:34:20;;;;;;;15.52;6.32;;;;;;;;;;6232931;22;20039;-96
2023/01/21 22:36:51;;;;;;;11.02;5.90;;;;;;;;;;6284296;22;20008;-96
2023/01/21 22:39:20;;;;;;;11.73;5.60;;;;;;;;;;6232917;22;20008;-95
2023/01/21 22:41:46;;;;;;;10.93;4.72;;;;;;;;;;6233517;22;20026;-95
2023/01/21 22:44:12;;;;;;;11.82;5.38;;;;;;;;;;6286044;22;19983;-94
2023/01/21 22:46:38;;;;;;;9.60;5.07;;;;;;;;;;6233159;22;20332;-95
2023/01/21 22:49:04;;;;;;;11.98;5.35;;;;;;;;;;6284746;22;20053;-96
2023/01/21 22:51:30;;;;;;;10.00;5.00;;;;;;;;;;6232524;22;20094;-95
2023/01/21 22:53:58;;;;;;;7.97;4.63;;;;;;;;;;6283439;22;20000;-96
2023/01/21 22:56:25;;;;;;;11.50;4.55;;;;;;;;;;6232255;22;20058;-96
2023/01/21 22:58:51;;;;;;;8.98;4.40;;;;;;;;;;6284839;22;20003;-95
2023/01/21 23:01:29;;;;;;;9.48;4.82;;;;;;;;;;6283996;22;20506;-95
2023/01/21 23:03:56;;;;;;;10.23;4.50;;;;;;;;;;6279435;22;20015;-95
2023/01/21 23:06:22;;;;;;;11.48;4.93;;;;;;;;;;6226860;23;20012;-95
2023/01/21 23:08:49;;;;;;;9.50;4.57;;;;;;;;;;6252978;23;20044;-96
2023/01/21 23:11:15;;;;;;;8.77;4.80;;;;;;;;;;6253357;23;20007;-95
2023/01/21 23:13:41;;;;;;;11.27;5.15;;;;;;;;;;6252124;23;20004;-95
2023/01/21 23:16:08;;;;;;;9.15;4.60;;;;;;;;;;6227682;23;20015;-95
2023/01/21 23:18:39;;;;;;;11.07;4.78;;;;;;;;;;6253557;23;20012;-95
2023/01/21 23:21:09;;;;;;;11.98;5.28;;;;;;;;;;6228425;23;20098;-95
2023/01/21 23:23:41;;;;;;;14.27;6.15;;;;;;;;;;6253278;23;20004;-95
2023/01/21 23:26:08;;;;;;;14.40;4.85;;;;;;;;;;6227575;23;20071;-95
2023/01/21 23:28:35;;;;;;;11.73;5.10;;;;;;;;;;6253636;23;20000;-94
2023/01/21 23:31:11;;;;;;;10.48;5.43;;;;;;;;;;6252961;22;20091;-94
2023/01/21 23:33:40;;;;;;;11.70;5.80;;;;;;;;;;6252163;23;20015;-95
2023/01/21 23:36:08;;;;;;;15.88;5.90;;;;;;;;;;6251672;23;20011;-95
2023/01/21 23:38:34;;;;;;;11.40;5.90;;;;;;;;;;6251935;23;20015;-95
2023/01/21 23:41:04;;;;;;;13.82;5.50;;;;;;;;;;6252563;23;20004;-95
2023/01/21 23:43:30;;;;;;;10.48;5.63;;;;;;;;;;6252690;23;20067;-95
2023/01/21 23:45:56;;;;;;;11.27;5.38;;;;;;;;;;6227775;23;20098;-95
2023/01/21 23:48:22;;;;;;;10.23;5.20;;;;;;;;;;6227278;23;20005;-94
2023/01/21 23:50:48;;;;;;;14.07;5.82;;;;;;;;;;6252943;23;20011;-95
2023/01/21 23:53:15;;;;;;;18.77;6.07;;;;;;;;;;6251563;23;20057;-96
2023/01/21 23:55:43;;;;;;;12.52;5.93;;;;;;;;;;6251741;23;20149;-95
2023/01/21 23:58:09;;;;;;;18.73;6.25;;;;;;;;;;6251490;23;20424;-96
